createdAt,value
2022-11-04T00:00:38.350Z,96.26
2022-11-04T00:03:05.457Z,97.42
2022-11-04T00:05:32.899Z,97.98
2022-11-04T00:08:18.436Z,96.81
2022-11-04T00:11:11.864Z,95.47
2022-11-04T00:13:38.789Z,94.36
2022-11-04T00:16:24.523Z,92.83
2022-11-04T00:18:51.424Z,91.59
2022-11-04T00:21:37.532Z,91.45
2022-11-04T00:24:23.267Z,92.05
2022-11-04T00:27:09.096Z,92.13
2022-11-04T00:29:36.046Z,93.16
2022-11-04T00:32:21.944Z,92.53
2022-11-04T00:34:48.799Z,91.31
2022-11-04T00:37:16.044Z,90.15
2022-11-04T00:39:42.959Z,89.88
2022-11-04T00:42:10.350Z,90.18
2022-11-04T00:44:37.273Z,89.85
2022-11-04T00:47:04.523Z,90.68
2022-11-04T00:49:31.454Z,90.61
2022-11-04T00:51:58.357Z,90.75
2022-11-04T00:54:25.660Z,90.46
2022-11-04T00:56:54.128Z,90.94
2022-11-04T00:59:21.364Z,91.14
2022-11-04T01:01:48.455Z,90.64
2022-11-04T01:04:15.855Z,89.76
2022-11-04T01:06:42.775Z,90.66
2022-11-04T01:09:12.115Z,89.85
2022-11-04T01:11:39.100Z,88.87
2022-11-04T01:14:06.361Z,88.25
2022-11-04T01:16:33.559Z,87.99
2022-11-04T01:19:01.015Z,88.31
2022-11-04T01:21:27.934Z,87.88
2022-11-04T01:23:55.548Z,88.28
2022-11-04T01:26:24.272Z,89.23
2022-11-04T01:28:52.766Z,90.05
2022-11-04T01:31:23.691Z,90.17
2022-11-04T01:33:51.839Z,91.26
2022-11-04T01:36:18.851Z,90.95
2022-11-04T01:38:46.255Z,90.83
2022-11-04T01:41:21.275Z,90.21
2022-11-04T01:43:56.400Z,90.48
2022-11-04T01:46:26.759Z,90.02
2022-11-04T01:48:56.618Z,90.77
2022-11-04T01:51:23.835Z,90.18
2022-11-04T01:53:52.343Z,90.82
2022-11-04T01:56:20.932Z,90.55
2022-11-04T01:58:52.892Z,90.47
2022-11-04T02:01:20.157Z,90.13
2022-11-04T02:03:50.938Z,89.91
2022-11-04T02:06:18.708Z,91.66
2022-11-04T02:08:46.670Z,91.31
2022-11-04T02:11:34.165Z,91.52
2022-11-04T02:14:01.551Z,92.13
2022-11-04T02:16:40.415Z,92.74
2022-11-04T02:19:19.683Z,93.37
2022-11-04T02:22:05.214Z,93.70
2022-11-04T02:24:50.943Z,94.04
2022-11-04T02:27:27.514Z,95.52
2022-11-04T02:29:57.435Z,97.50
2022-11-04T02:32:25.282Z,98.05
2022-11-04T02:34:58.480Z,98.52
2022-11-04T02:37:36.677Z,97.69
2022-11-04T02:40:14.142Z,97.75
2022-11-04T02:42:47.496Z,98.50
2022-11-04T02:45:22.187Z,97.88
2022-11-04T02:47:52.986Z,97.79
2022-11-04T02:50:31.579Z,97.41
2022-11-04T02:53:01.735Z,97.13
2022-11-04T02:55:32.142Z,96.21
2022-11-04T02:58:01.236Z,97.18
2022-11-04T03:00:28.871Z,96.48
2022-11-04T03:03:06.409Z,97.20
2022-11-04T03:05:35.283Z,97.10
2022-11-04T03:08:05.648Z,96.28
2022-11-04T03:10:42.137Z,95.72
2022-11-04T03:13:13.482Z,95.83
2022-11-04T03:15:43.195Z,95.70
2022-11-04T03:18:17.872Z,95.07
2022-11-04T03:20:46.307Z,94.57
2022-11-04T03:23:13.991Z,93.76
2022-11-04T03:25:44.272Z,94.66
2022-11-04T03:28:17.406Z,94.29
2022-11-04T03:30:47.800Z,94.85
2022-11-04T03:33:33.634Z,94.33
2022-11-04T03:36:00.617Z,94.24
2022-11-04T03:38:27.900Z,93.74
2022-11-04T03:40:54.838Z,92.54
2022-11-04T03:43:26.191Z,92.16
2022-11-04T03:45:53.924Z,92.16
2022-11-04T03:48:21.240Z,92.02
2022-11-04T03:50:48.880Z,91.53
2022-11-04T03:53:18.785Z,92.22
2022-11-04T03:55:48.510Z,93.24
2022-11-04T03:58:24.690Z,93.44
2022-11-04T04:01:05.997Z,93.40
2022-11-04T04:03:55.479Z,92.87
2022-11-04T04:06:27.001Z,92.41
2022-11-04T04:08:55.773Z,92.91
2022-11-04T04:11:28.746Z,92.59
2022-11-04T04:14:34.412Z,93.24
2022-11-04T04:17:03.845Z,93.49
2022-11-04T04:19:32.076Z,93.95
2022-11-04T04:22:01.475Z,94.49
2022-11-04T04:24:50.558Z,95.04
2022-11-04T04:27:31.379Z,95.03
2022-11-04T04:30:04.610Z,95.27
2022-11-04T04:32:34.898Z,95.43
2022-11-04T04:35:20.531Z,94.40
2022-11-04T04:37:48.340Z,95.39
2022-11-04T04:40:35.904Z,94.42
2022-11-04T04:43:23.706Z,94.49
2022-11-04T04:45:52.974Z,94.59
2022-11-04T04:48:20.186Z,93.99
2022-11-04T04:50:50.057Z,94.01
2022-11-04T04:53:17.469Z,94.64
2022-11-04T04:55:44.355Z,93.75
2022-11-04T04:58:11.573Z,92.53
2022-11-04T05:00:38.486Z,93.01
2022-11-04T05:03:06.124Z,92.31
2022-11-04T05:05:33.331Z,92.67
2022-11-04T05:08:05.019Z,92.78
2022-11-04T05:10:31.943Z,92.87
2022-11-04T05:13:18.248Z,92.60
2022-11-04T05:15:45.423Z,93.20
2022-11-04T05:18:12.338Z,93.45
2022-11-04T05:20:40.505Z,94.42
2022-11-04T05:23:07.781Z,94.10
2022-11-04T05:25:35.255Z,93.88
2022-11-04T05:28:02.571Z,93.80
2022-11-04T05:30:29.844Z,93.72
2022-11-04T05:32:59.979Z,94.25
2022-11-04T05:35:32.182Z,94.51
2022-11-04T05:37:59.086Z,94.87
2022-11-04T05:40:26.327Z,95.01
2022-11-04T05:42:53.316Z,94.95
2022-11-04T05:45:20.546Z,94.89
2022-11-04T05:47:47.572Z,95.01
2022-11-04T05:50:14.875Z,94.45
2022-11-04T05:52:41.822Z,95.38
2022-11-04T05:55:09.193Z,94.53
2022-11-04T05:57:38.337Z,95.11
2022-11-04T06:00:06.206Z,95.11
2022-11-04T06:02:33.300Z,95.34
2022-11-04T06:05:00.754Z,95.17
2022-11-04T06:07:27.664Z,95.40
2022-11-04T06:09:54.899Z,94.77
2022-11-04T06:12:21.828Z,95.02
2022-11-04T06:14:48.979Z,95.54
2022-11-04T06:17:16.938Z,95.38
2022-11-04T06:19:44.295Z,95.09
2022-11-04T06:22:12.138Z,93.74
2022-11-04T06:24:39.644Z,92.70
2022-11-04T06:27:06.747Z,92.57
2022-11-04T06:29:33.927Z,92.82
2022-11-04T06:32:00.776Z,93.22
2022-11-04T06:34:29.299Z,92.89
2022-11-04T06:36:56.163Z,92.08
2022-11-04T06:39:23.482Z,91.31
2022-11-04T06:41:51.754Z,90.32
2022-11-04T06:44:20.253Z,90.13
2022-11-04T06:46:47.186Z,91.58
2022-11-04T06:49:18.777Z,91.51
2022-11-04T06:51:46.176Z,90.86
2022-11-04T06:54:14.111Z,89.95
2022-11-04T06:56:41.312Z,91.09
2022-11-04T06:59:08.985Z,90.32
2022-11-04T07:01:36.956Z,90.77
2022-11-04T07:04:05.621Z,90.74
2022-11-04T07:06:32.446Z,90.66
2022-11-04T07:09:00.438Z,90.73
2022-11-04T07:11:29.570Z,90.67
2022-11-04T07:13:57.543Z,90.88
2022-11-04T07:16:24.412Z,90.53
2022-11-04T07:18:52.123Z,90.51
2022-11-04T07:21:18.980Z,90.50
2022-11-04T07:23:46.603Z,90.73
2022-11-04T07:26:13.737Z,90.72
2022-11-04T07:28:41.003Z,90.36
2022-11-04T07:31:08.466Z,90.99
2022-11-04T07:33:36.173Z,90.80
2022-11-04T07:36:07.188Z,91.25
2022-11-04T07:38:34.380Z,90.62
2022-11-04T07:41:02.676Z,90.84
2022-11-04T07:43:30.160Z,91.53
2022-11-04T07:46:04.148Z,91.47
2022-11-04T07:48:31.609Z,92.02
2022-11-04T07:50:59.905Z,92.05
2022-11-04T07:53:27.566Z,91.79
2022-11-04T07:55:54.584Z,91.79
2022-11-04T07:58:22.408Z,92.10
2022-11-04T08:00:50.068Z,92.04
2022-11-04T08:03:17.818Z,91.20
2022-11-04T08:05:44.688Z,91.64
2022-11-04T08:08:11.887Z,91.58
2022-11-04T08:10:38.851Z,90.21
2022-11-04T08:13:06.329Z,90.11
2022-11-04T08:15:35.914Z,90.05
2022-11-04T08:18:03.109Z,89.22
2022-11-04T08:20:30.224Z,89.05
2022-11-04T08:22:57.488Z,88.63
2022-11-04T08:25:24.387Z,88.70
2022-11-04T08:27:52.842Z,88.07
2022-11-04T08:30:22.466Z,87.92
2022-11-04T08:32:49.698Z,87.02
2022-11-04T08:35:16.636Z,86.36
2022-11-04T08:37:43.923Z,85.35
2022-11-04T08:40:10.896Z,84.78
2022-11-04T08:42:38.344Z,84.07
2022-11-04T08:45:05.535Z,84.38
2022-11-04T08:47:32.936Z,85.11
2022-11-04T08:49:59.806Z,84.65
2022-11-04T08:52:27.292Z,84.15
2022-11-04T08:54:57.428Z,84.15
2022-11-04T08:57:25.202Z,83.97
2022-11-04T08:59:52.227Z,84.31
2022-11-04T09:02:19.410Z,83.60
2022-11-04T09:04:46.243Z,82.65
2022-11-04T09:07:13.607Z,81.69
2022-11-04T09:09:41.072Z,81.85
2022-11-04T09:12:11.395Z,80.48
2022-11-04T09:14:38.385Z,80.57
2022-11-04T09:17:05.534Z,80.97
2022-11-04T09:19:32.760Z,81.73
2022-11-04T09:22:00.027Z,82.15
2022-11-04T09:24:26.952Z,82.42
2022-11-04T09:26:54.263Z,82.79
2022-11-04T09:29:21.155Z,83.19
2022-11-04T09:31:50.214Z,83.92
2022-11-04T09:34:20.591Z,83.31
2022-11-04T09:36:48.130Z,83.51
2022-11-04T09:39:15.095Z,83.55
2022-11-04T09:41:49.725Z,84.38
2022-11-04T09:44:25.841Z,84.67
2022-11-04T09:46:55.375Z,84.55
2022-11-04T09:49:23.112Z,84.84
2022-11-04T09:51:55.215Z,84.98
2022-11-04T09:54:24.910Z,84.53
2022-11-04T09:56:53.280Z,83.59
2022-11-04T09:59:21.499Z,82.54
2022-11-04T10:01:49.411Z,81.00
2022-11-04T10:04:34.469Z,79.99
2022-11-04T10:07:13.659Z,79.12
2022-11-04T10:10:01.511Z,79.01
2022-11-04T10:12:28.760Z,78.75
2022-11-04T10:15:19.012Z,79.47
2022-11-04T10:18:04.731Z,79.08
2022-11-04T10:20:37.358Z,78.77
2022-11-04T10:23:12.844Z,79.47
2022-11-04T10:25:59.915Z,79.79
2022-11-04T10:28:41.215Z,80.80
2022-11-04T10:31:11.123Z,81.96
2022-11-04T10:33:41.160Z,82.53
2022-11-04T10:36:09.853Z,84.41
2022-11-04T10:38:43.627Z,85.84
2022-11-04T10:41:34.029Z,86.14
2022-11-04T10:44:06.992Z,86.11
2022-11-04T10:46:39.955Z,85.65
2022-11-04T10:49:22.416Z,86.29
2022-11-04T10:51:49.269Z,86.34
2022-11-04T10:54:16.515Z,86.97
2022-11-04T10:56:53.989Z,87.17
2022-11-04T10:59:26.551Z,87.96
2022-11-04T11:01:57.691Z,87.14
2022-11-04T11:04:30.091Z,87.47
2022-11-04T11:06:58.570Z,87.63
2022-11-04T11:09:30.700Z,87.68
2022-11-04T11:12:00.988Z,87.39
2022-11-04T11:14:28.239Z,87.17
2022-11-04T11:17:17.511Z,87.29
2022-11-04T11:20:08.491Z,87.52
2022-11-04T11:22:35.387Z,88.35
2022-11-04T11:25:31.969Z,87.96
2022-11-04T11:28:03.236Z,87.57
2022-11-04T11:30:32.291Z,87.33
2022-11-04T11:33:01.081Z,87.63
2022-11-04T11:35:31.131Z,87.87
2022-11-04T11:37:59.350Z,87.66
2022-11-04T11:40:28.177Z,87.85
2022-11-04T11:42:55.907Z,88.16
2022-11-04T11:45:23.802Z,88.00
2022-11-04T11:47:55.096Z,88.60
2022-11-04T11:50:31.520Z,88.67
2022-11-04T11:53:29.640Z,89.81
2022-11-04T11:56:03.516Z,90.46
2022-11-04T12:01:33.193Z,90.05
2022-11-04T12:10:23.987Z,90.37
2022-11-04T12:13:28.029Z,90.70
2022-11-04T12:16:14.839Z,90.52
2022-11-04T12:18:54.150Z,90.23
2022-11-04T12:21:33.054Z,90.33
2022-11-04T12:24:20.694Z,89.76
2022-11-04T12:26:54.621Z,90.40
2022-11-04T12:29:34.143Z,89.94
2022-11-04T12:32:16.600Z,89.90
2022-11-04T12:35:10.305Z,90.51
2022-11-04T12:37:52.575Z,90.34
2022-11-04T12:40:19.987Z,89.53
2022-11-04T12:43:07.550Z,89.39
2022-11-04T12:45:59.147Z,89.66
2022-11-04T12:48:26.116Z,89.17
2022-11-04T12:51:28.907Z,89.54
2022-11-04T12:54:08.975Z,89.58
2022-11-04T12:56:38.249Z,89.81
2022-11-04T12:59:26.989Z,89.88
2022-11-04T13:01:54.362Z,89.90
2022-11-04T13:04:24.014Z,90.23
2022-11-04T13:07:04.183Z,90.06
2022-11-04T13:09:46.368Z,89.36
2022-11-04T13:12:16.541Z,89.66
2022-11-04T13:14:59.070Z,89.16
2022-11-04T13:17:39.231Z,88.39
2022-11-04T13:20:15.621Z,88.43
2022-11-04T13:22:44.696Z,88.24
2022-11-04T13:25:24.631Z,87.51
2022-11-04T13:27:51.610Z,88.00
2022-11-04T13:30:27.652Z,88.13
2022-11-04T13:32:58.803Z,87.36
2022-11-04T13:35:26.027Z,87.52
2022-11-04T13:37:58.328Z,87.26
2022-11-04T13:40:32.410Z,86.80
2022-11-04T13:43:36.377Z,86.99
2022-11-04T13:46:04.428Z,87.54
2022-11-04T13:48:33.774Z,87.81
2022-11-04T13:51:08.851Z,88.35
2022-11-04T13:53:41.781Z,87.58
2022-11-04T13:56:32.277Z,87.69
2022-11-04T13:59:00.177Z,88.21
2022-11-04T14:01:29.898Z,87.87
2022-11-04T14:04:19.111Z,88.58
2022-11-04T14:07:14.564Z,88.40
2022-11-04T14:09:44.496Z,88.51
2022-11-04T14:12:14.703Z,88.85
2022-11-04T14:14:42.932Z,89.13
2022-11-04T14:17:28.728Z,88.90
2022-11-04T14:19:58.004Z,89.28
2022-11-04T14:22:29.570Z,88.82
2022-11-04T14:24:58.474Z,90.35
2022-11-04T14:27:27.845Z,89.27
2022-11-04T14:29:55.527Z,89.32
2022-11-04T14:32:27.450Z,89.41
2022-11-04T14:34:59.211Z,90.56
2022-11-04T14:37:32.294Z,90.46
2022-11-04T14:40:00.957Z,90.37
2022-11-04T14:42:47.759Z,90.22
2022-11-04T14:45:25.800Z,91.00
2022-11-04T14:47:57.448Z,90.41
2022-11-04T14:50:26.681Z,89.97
2022-11-04T14:52:53.487Z,89.85
2022-11-04T14:55:22.695Z,90.80
2022-11-04T14:57:53.077Z,91.35
2022-11-04T15:00:32.127Z,92.15
2022-11-04T15:03:45.926Z,92.91
2022-11-04T15:06:06.084Z,93.20
2022-11-04T15:08:42.957Z,93.09
2022-11-04T15:11:17.661Z,93.84
2022-11-04T15:13:45.189Z,93.92
2022-11-04T15:16:18.216Z,94.69
2022-11-04T15:18:45.359Z,93.83
2022-11-04T15:21:13.284Z,94.40
2022-11-04T15:23:42.708Z,93.92
2022-11-04T15:26:30.563Z,93.59
2022-11-04T15:29:04.354Z,93.41
2022-11-04T15:31:32.893Z,93.90
2022-11-04T15:34:01.652Z,93.58
2022-11-04T15:36:32.523Z,93.04
2022-11-04T15:39:19.828Z,93.65
2022-11-04T15:42:05.939Z,94.07
2022-11-04T15:44:34.980Z,93.80
2022-11-04T15:47:03.420Z,94.45
2022-11-04T15:49:32.041Z,93.65
2022-11-04T15:52:20.017Z,93.95
2022-11-04T15:54:48.761Z,92.85
2022-11-04T15:57:21.457Z,92.00
2022-11-04T16:00:01.595Z,91.97
2022-11-04T16:02:30.941Z,92.72
2022-11-04T16:05:26.878Z,92.13
2022-11-04T16:07:54.659Z,92.76
2022-11-04T16:10:35.477Z,93.57
2022-11-04T16:13:14.618Z,94.15
2022-11-04T16:15:57.048Z,94.69
2022-11-04T16:18:23.883Z,95.07
2022-11-04T16:20:53.245Z,95.22
2022-11-04T16:23:25.089Z,94.57
2022-11-04T16:26:04.359Z,94.70
2022-11-04T16:28:40.923Z,95.74
2022-11-04T16:31:23.322Z,95.21
2022-11-04T16:33:50.725Z,95.78
2022-11-04T16:36:23.803Z,96.12
2022-11-04T16:39:03.867Z,95.91
2022-11-04T21:40:15.193Z,100.00
2022-11-04T21:42:42.592Z,100.00
2022-11-04T21:45:09.870Z,100.00
2022-11-04T21:47:37.122Z,100.00
2022-11-04T21:50:04.260Z,100.00
2022-11-04T21:52:31.875Z,100.00
2022-11-04T21:54:59.027Z,100.00
2022-11-04T21:57:26.428Z,100.00
2022-11-04T21:59:53.424Z,100.00
2022-11-04T22:02:20.877Z,100.00
2022-11-04T22:04:47.877Z,100.00
2022-11-04T22:07:15.222Z,100.00
2022-11-04T22:09:42.309Z,100.00
2022-11-04T22:12:09.599Z,100.00
2022-11-04T22:14:36.739Z,100.00
2022-11-04T22:17:04.045Z,100.00
2022-11-04T22:19:30.923Z,100.00
2022-11-04T22:21:58.321Z,100.00
2022-11-04T22:24:25.396Z,100.00
2022-11-04T22:26:52.851Z,100.00
2022-11-04T22:29:19.823Z,100.00
2022-11-04T22:31:47.115Z,100.00
2022-11-04T22:34:13.990Z,100.00
2022-11-04T22:36:41.236Z,100.00
2022-11-04T22:39:15.017Z,100.00
2022-11-04T22:41:44.039Z,100.00
2022-11-04T22:44:11.257Z,100.00
2022-11-04T22:46:38.822Z,100.00
2022-11-04T22:49:05.684Z,100.00
2022-11-04T22:51:32.901Z,100.00
2022-11-04T22:54:06.564Z,100.00
2022-11-04T22:56:35.833Z,100.00
2022-11-04T22:59:02.845Z,100.00
2022-11-04T23:01:31.786Z,100.00
2022-11-04T23:03:59.402Z,100.00
2022-11-04T23:06:26.853Z,100.00
2022-11-04T23:08:59.687Z,100.00
2022-11-04T23:11:47.035Z,100.00
2022-11-04T23:14:33.984Z,100.00
2022-11-04T23:17:20.286Z,100.00
2022-11-04T23:19:47.244Z,100.00
2022-11-04T23:22:33.135Z,100.00
2022-11-04T23:25:06.277Z,100.00
2022-11-04T23:27:52.503Z,100.00
2022-11-04T23:30:22.448Z,100.00
2022-11-04T23:32:52.875Z,100.00
2022-11-04T23:35:38.506Z,100.00
2022-11-04T23:38:06.230Z,100.00
2022-11-04T23:40:33.395Z,100.00
2022-11-04T23:43:00.987Z,100.00
2022-11-04T23:45:46.450Z,100.00
2022-11-04T23:48:32.464Z,100.00
2022-11-04T23:51:18.755Z,100.00
2022-11-04T23:54:04.979Z,100.00
2022-11-04T23:56:50.798Z,100.00
2022-11-04T23:59:37.331Z,100.00
